Time;durP1;ratioP1;P1;durP2;ratioP2;P2;SDS_P1;SDS_P2;PMS_P1;PMS_P2;Temp;Humidity;BMP_temperature;BMP_pressure;BME280_temperature;BME280_humidity;BME280_pressure;Samples;Min_cycle;Max_cycle;Signal;HPM_P1;HPM_P2
2021/10/01 00:04:45;;;;;;;0.10;0.10;;;;;;;;;;12906318;22;20661;-76
2021/10/01 00:09:48;;;;;;;0.10;0.10;;;;;;;;;;12906270;23;20040;-77
2021/10/01 00:14:52;;;;;;;0.10;0.10;;;;;;;;;;12907640;23;20098;-75
2021/10/01 00:19:55;;;;;;;0.10;0.10;;;;;;;;;;12907195;23;20048;-75
2021/10/01 00:24:58;;;;;;;0.10;0.10;;;;;;;;;;12905680;23;20116;-76
2021/10/01 00:30:02;;;;;;;0.10;0.10;;;;;;;;;;12906398;23;20095;-75
2021/10/01 00:35:05;;;;;;;0.00;0.00;;;;;;;;;;12907372;22;20416;-75
2021/10/01 00:40:09;;;;;;;0.10;0.10;;;;;;;;;;12907154;23;20103;-75
2021/10/01 00:45:13;;;;;;;0.10;0.10;;;;;;;;;;12911005;22;20060;-76
2021/10/01 00:50:15;;;;;;;0.13;0.10;;;;;;;;;;12907465;23;20031;-76
2021/10/01 00:55:18;;;;;;;0.10;0.10;;;;;;;;;;12908230;23;20028;-76
2021/10/01 01:00:27;;;;;;;0.10;0.10;;;;;;;;;;12908799;23;20058;-76
2021/10/01 01:05:35;;;;;;;0.10;0.10;;;;;;;;;;12907569;23;20078;-76
2021/10/01 01:10:43;;;;;;;0.10;0.10;;;;;;;;;;12910314;23;20020;-76
2021/10/01 01:15:52;;;;;;;0.10;0.10;;;;;;;;;;12907587;23;20024;-76
2021/10/01 01:20:58;;;;;;;0.10;0.10;;;;;;;;;;12908369;22;20035;-77
2021/10/01 01:26:08;;;;;;;0.45;0.08;;;;;;;;;;12908198;23;20917;-76
2021/10/01 01:31:19;;;;;;;0.10;0.10;;;;;;;;;;12908181;23;20020;-76
2021/10/01 01:36:24;;;;;;;0.10;0.10;;;;;;;;;;12907323;23;20017;-75
2021/10/01 01:41:27;;;;;;;0.10;0.10;;;;;;;;;;12909220;23;20454;-75
2021/10/01 01:46:31;;;;;;;0.10;0.10;;;;;;;;;;12907573;23;20023;-75
2021/10/01 01:51:44;;;;;;;0.10;0.10;;;;;;;;;;12908141;23;20082;-76
2021/10/01 01:56:48;;;;;;;0.10;0.10;;;;;;;;;;12906588;23;20441;-75
2021/10/01 02:01:51;;;;;;;0.25;0.17;;;;;;;;;;12907355;22;20028;-76
2021/10/01 02:06:58;;;;;;;0.10;0.10;;;;;;;;;;12906612;23;20078;-76
2021/10/01 02:12:01;;;;;;;0.15;0.15;;;;;;;;;;12906976;23;20451;-76
2021/10/01 02:17:04;;;;;;;0.10;0.10;;;;;;;;;;12907266;23;20027;-77
2021/10/01 02:22:11;;;;;;;0.10;0.10;;;;;;;;;;12908493;23;20454;-76
2021/10/01 02:27:18;;;;;;;0.10;0.10;;;;;;;;;;12907761;23;20023;-76
2021/10/01 02:32:31;;;;;;;0.10;0.10;;;;;;;;;;12908203;22;20024;-76
2021/10/01 02:37:36;;;;;;;0.20;0.10;;;;;;;;;;12907674;23;20019;-75
2021/10/01 02:42:40;;;;;;;0.10;0.10;;;;;;;;;;12906281;23;20351;-76
2021/10/01 02:47:43;;;;;;;0.15;0.15;;;;;;;;;;12907563;23;20508;-78
2021/10/01 02:52:49;;;;;;;0.10;0.10;;;;;;;;;;12906401;23;20028;-76
2021/10/01 02:58:07;;;;;;;0.10;0.10;;;;;;;;;;12914485;23;20020;-77
2021/10/01 03:03:11;;;;;;;0.43;0.20;;;;;;;;;;12940809;23;20065;-78
2021/10/01 03:08:17;;;;;;;0.10;0.10;;;;;;;;;;12952266;23;20027;-77
2021/10/01 03:13:21;;;;;;;0.10;0.10;;;;;;;;;;12915628;22;20024;-78
2021/10/01 03:18:25;;;;;;;0.20;0.20;;;;;;;;;;12904318;23;20024;-77
2021/10/01 03:23:31;;;;;;;0.10;0.10;;;;;;;;;;12904242;23;20028;-75
2021/10/01 03:28:34;;;;;;;0.10;0.10;;;;;;;;;;12902996;23;20031;-76
2021/10/01 03:33:36;;;;;;;0.10;0.10;;;;;;;;;;12905139;23;20032;-75
2021/10/01 03:38:42;;;;;;;0.20;0.10;;;;;;;;;;12910656;23;20024;-72
2021/10/01 03:43:45;;;;;;;0.10;0.10;;;;;;;;;;12909861;23;20055;-72
2021/10/01 03:48:51;;;;;;;0.10;0.10;;;;;;;;;;12909669;23;20067;-72
2021/10/01 03:53:56;;;;;;;0.10;0.10;;;;;;;;;;12910814;22;20099;-73
2021/10/01 03:58:59;;;;;;;0.10;0.10;;;;;;;;;;12909606;22;20035;-74
2021/10/01 04:04:01;;;;;;;0.10;0.10;;;;;;;;;;12909320;23;20024;-72
2021/10/01 04:09:06;;;;;;;0.10;0.10;;;;;;;;;;12911365;23;20091;-71
2021/10/01 04:14:09;;;;;;;0.10;0.10;;;;;;;;;;12909444;23;20058;-72
2021/10/01 04:19:12;;;;;;;0.10;0.10;;;;;;;;;;12913831;23;20078;-72
2021/10/01 04:24:38;;;;;;;0.10;0.10;;;;;;;;;;12913315;23;20039;-72
2021/10/01 04:29:42;;;;;;;0.10;0.10;;;;;;;;;;12914048;23;20020;-72
2021/10/01 04:34:58;;;;;;;0.10;0.10;;;;;;;;;;12913089;23;20030;-77
2021/10/01 04:40:03;;;;;;;0.10;0.10;;;;;;;;;;12911334;23;20728;-76
2021/10/01 04:45:10;;;;;;;0.10;0.10;;;;;;;;;;12911714;22;20035;-75
2021/10/01 04:50:14;;;;;;;0.10;0.10;;;;;;;;;;12910146;23;20501;-72
2021/10/01 04:55:18;;;;;;;0.13;0.13;;;;;;;;;;12912845;22;20035;-72
2021/10/01 05:00:22;;;;;;;0.10;0.10;;;;;;;;;;12912424;23;20020;-72
2021/10/01 05:05:43;;;;;;;0.10;0.10;;;;;;;;;;12914713;23;20032;-73
2021/10/01 05:11:13;;;;;;;0.10;0.10;;;;;;;;;;12912038;23;20032;-72
2021/10/01 05:16:35;;;;;;;0.10;0.10;;;;;;;;;;12914503;23;20056;-72
2021/10/01 05:21:56;;;;;;;0.10;0.10;;;;;;;;;;12914027;23;20506;-73
2021/10/01 05:27:01;;;;;;;0.10;0.10;;;;;;;;;;12912257;23;20020;-73
2021/10/01 05:32:04;;;;;;;0.10;0.10;;;;;;;;;;12914268;22;20028;-73
2021/10/01 05:37:07;;;;;;;0.20;0.20;;;;;;;;;;12911810;23;20047;-73
2021/10/01 05:42:13;;;;;;;0.10;0.10;;;;;;;;;;12912026;23;20024;-73
2021/10/01 05:47:17;;;;;;;0.10;0.10;;;;;;;;;;12912278;23;20645;-73
2021/10/01 05:52:58;;;;;;;0.10;0.10;;;;;;;;;;12913538;23;20028;-72
2021/10/01 05:58:22;;;;;;;0.20;0.20;;;;;;;;;;12915034;23;20020;-74
2021/10/01 06:03:29;;;;;;;0.52;0.10;;;;;;;;;;12914349;23;20036;-73
2021/10/01 06:08:31;;;;;;;0.10;0.10;;;;;;;;;;12915164;22;20034;-74
2021/10/01 06:13:37;;;;;;;0.10;0.10;;;;;;;;;;12915087;22;20020;-74
2021/10/01 06:18:40;;;;;;;0.10;0.10;;;;;;;;;;12916188;23;20414;-73
2021/10/01 06:23:43;;;;;;;0.10;0.10;;;;;;;;;;12913596;22;20028;-73
2021/10/01 06:28:47;;;;;;;0.20;0.10;;;;;;;;;;12915345;23;20522;-74
2021/10/01 06:33:52;;;;;;;0.20;0.20;;;;;;;;;;12917667;22;20047;-74
2021/10/01 06:38:54;;;;;;;0.10;0.10;;;;;;;;;;12937583;22;20035;-76
2021/10/01 06:44:00;;;;;;;0.10;0.10;;;;;;;;;;12929441;23;20043;-73
2021/10/01 06:49:16;;;;;;;0.10;0.10;;;;;;;;;;12908924;23;20094;-77
2021/10/01 08:20:04;;;;;;;0.10;0.10;;;;;;;;;;12915581;22;20012;-76
2021/10/01 08:25:07;;;;;;;0.10;0.10;;;;;;;;;;12914896;22;20027;-76
2021/10/01 08:30:12;;;;;;;0.10;0.10;;;;;;;;;;12913017;23;20024;-77
2021/10/01 08:35:21;;;;;;;0.05;0.05;;;;;;;;;;12915433;23;20016;-76
2021/10/01 08:40:24;;;;;;;0.10;0.10;;;;;;;;;;12913172;23;20016;-73
2021/10/01 08:45:29;;;;;;;0.10;0.10;;;;;;;;;;12917038;23;20020;-74
2021/10/01 08:50:33;;;;;;;0.00;0.00;;;;;;;;;;12921044;23;20017;-74
2021/10/01 08:55:37;;;;;;;0.10;0.10;;;;;;;;;;12920598;22;20451;-75
2021/10/01 09:00:39;;;;;;;0.00;0.00;;;;;;;;;;12919606;23;20096;-75
2021/10/01 09:05:43;;;;;;;0.00;0.00;;;;;;;;;;12921291;23;20019;-74
2021/10/01 09:10:56;;;;;;;0.00;0.00;;;;;;;;;;12920561;23;20020;-71
2021/10/01 09:16:03;;;;;;;0.20;0.10;;;;;;;;;;12919727;23;20028;-73
2021/10/01 09:21:08;;;;;;;0.00;0.00;;;;;;;;;;12919876;23;20074;-73
2021/10/01 09:26:12;;;;;;;0.08;0.08;;;;;;;;;;12921303;22;20038;-73
2021/10/01 09:31:36;;;;;;;0.00;0.00;;;;;;;;;;12920555;23;20040;-74
2021/10/01 09:36:57;;;;;;;0.10;0.10;;;;;;;;;;12922101;23;20119;-72
2021/10/01 09:42:09;;;;;;;0.00;0.00;;;;;;;;;;12920759;23;20020;-72
2021/10/01 09:47:13;;;;;;;0.00;0.00;;;;;;;;;;12919744;23;20044;-72
2021/10/01 09:52:18;;;;;;;0.00;0.00;;;;;;;;;;12918672;23;20016;-72
2021/10/01 09:57:20;;;;;;;0.00;0.00;;;;;;;;;;12918392;22;20446;-73
2021/10/01 10:02:23;;;;;;;0.05;0.05;;;;;;;;;;12915744;23;20028;-73
2021/10/01 10:07:28;;;;;;;0.10;0.10;;;;;;;;;;12917226;23;20020;-72
2021/10/01 10:12:35;;;;;;;0.00;0.00;;;;;;;;;;12915241;23;20024;-73
2021/10/01 10:17:45;;;;;;;0.00;0.00;;;;;;;;;;12919384;23;20024;-72
2021/10/01 10:22:49;;;;;;;0.00;0.00;;;;;;;;;;12919198;22;20720;-72
2021/10/01 10:27:52;;;;;;;0.00;0.00;;;;;;;;;;12924782;23;20016;-73
2021/10/01 10:32:55;;;;;;;0.00;0.00;;;;;;;;;;12927161;23;20086;-75
2021/10/01 10:37:59;;;;;;;0.00;0.00;;;;;;;;;;12925770;23;20044;-74
2021/10/01 10:43:02;;;;;;;0.00;0.00;;;;;;;;;;12918300;23;20039;-73
2021/10/01 10:48:10;;;;;;;0.00;0.00;;;;;;;;;;12917025;23;20099;-73
2021/10/01 10:53:27;;;;;;;0.00;0.00;;;;;;;;;;12917937;23;20083;-72
2021/10/01 10:58:40;;;;;;;0.35;0.00;;;;;;;;;;12916258;23;20027;-73
2021/10/01 11:03:43;;;;;;;0.00;0.00;;;;;;;;;;12919171;23;20426;-73
2021/10/01 11:09:12;;;;;;;0.00;0.00;;;;;;;;;;12918077;22;20016;-73
2021/10/01 11:14:22;;;;;;;0.00;0.00;;;;;;;;;;12917836;23;20095;-73
2021/10/01 11:19:35;;;;;;;0.00;0.00;;;;;;;;;;12918930;23;20020;-73
2021/10/01 11:24:46;;;;;;;0.08;0.00;;;;;;;;;;12918446;22;20439;-73
2021/10/01 11:29:49;;;;;;;0.00;0.00;;;;;;;;;;12918197;23;20012;-74
2021/10/01 11:34:53;;;;;;;0.00;0.00;;;;;;;;;;12916457;23;20034;-73
2021/10/01 11:39:58;;;;;;;0.00;0.00;;;;;;;;;;12917893;23;20070;-73
2021/10/01 11:45:07;;;;;;;0.00;0.00;;;;;;;;;;12917824;22;20024;-73
2021/10/01 11:50:11;;;;;;;0.00;0.00;;;;;;;;;;12917229;23;20020;-73
2021/10/01 11:55:15;;;;;;;0.00;0.00;;;;;;;;;;12919362;22;20354;-73
2021/10/01 12:00:18;;;;;;;0.00;0.00;;;;;;;;;;12919225;22;20447;-73
2021/10/01 12:05:27;;;;;;;0.20;0.00;;;;;;;;;;12919445;23;20024;-73
2021/10/01 12:10:32;;;;;;;0.00;0.00;;;;;;;;;;12918355;22;20012;-73
2021/10/01 12:15:54;;;;;;;0.00;0.00;;;;;;;;;;12918428;23;20024;-73
2021/10/01 12:20:59;;;;;;;0.00;0.00;;;;;;;;;;12916090;23;20051;-73
2021/10/01 12:26:24;;;;;;;0.00;0.00;;;;;;;;;;12916361;23;20039;-73
2021/10/01 12:31:29;;;;;;;0.00;0.00;;;;;;;;;;12917953;23;20413;-73
2021/10/01 12:36:32;;;;;;;0.00;0.00;;;;;;;;;;12916682;23;20023;-73
2021/10/01 12:41:36;;;;;;;0.00;0.00;;;;;;;;;;12922537;22;20012;-73
2021/10/01 12:46:44;;;;;;;0.00;0.00;;;;;;;;;;12922349;22;20459;-73
2021/10/01 12:51:59;;;;;;;0.00;0.00;;;;;;;;;;12920473;23;20043;-73
2021/10/01 12:57:14;;;;;;;0.30;0.00;;;;;;;;;;12923616;22;20091;-72
2021/10/01 13:02:18;;;;;;;0.00;0.00;;;;;;;;;;12922571;23;20044;-73
2021/10/01 13:07:26;;;;;;;0.47;0.10;;;;;;;;;;12921248;23;20106;-74
2021/10/01 13:12:33;;;;;;;0.47;0.05;;;;;;;;;;12920479;23;20113;-73
2021/10/01 13:17:36;;;;;;;0.00;0.00;;;;;;;;;;12922339;22;20070;-73
2021/10/01 13:22:56;;;;;;;0.00;0.00;;;;;;;;;;12921093;23;20387;-73
2021/10/01 13:28:01;;;;;;;0.45;0.00;;;;;;;;;;12921038;23;20425;-73
2021/10/01 13:33:04;;;;;;;0.00;0.00;;;;;;;;;;12920030;22;20459;-73
2021/10/01 13:38:11;;;;;;;0.00;0.00;;;;;;;;;;12922588;22;20382;-74
2021/10/01 13:43:15;;;;;;;0.00;0.00;;;;;;;;;;12921550;22;20016;-73
2021/10/01 13:48:18;;;;;;;0.00;0.00;;;;;;;;;;12920265;23;20103;-73
2021/10/01 13:53:21;;;;;;;0.00;0.00;;;;;;;;;;12922175;22;20043;-74
2021/10/01 13:58:26;;;;;;;0.00;0.00;;;;;;;;;;12920964;23;20038;-73
2021/10/01 14:03:28;;;;;;;0.00;0.00;;;;;;;;;;12921078;23;20509;-73
2021/10/01 14:08:33;;;;;;;0.00;0.00;;;;;;;;;;12919974;23;20107;-73
2021/10/01 14:13:57;;;;;;;0.00;0.00;;;;;;;;;;12919614;23;20047;-73
2021/10/01 14:19:00;;;;;;;0.08;0.00;;;;;;;;;;12921316;23;20016;-73
2021/10/01 14:24:03;;;;;;;0.00;0.00;;;;;;;;;;12919492;23;20107;-73
2021/10/01 14:29:07;;;;;;;0.00;0.00;;;;;;;;;;12921290;23;20016;-73
2021/10/01 14:34:11;;;;;;;0.00;0.00;;;;;;;;;;12921294;23;20020;-74
2021/10/01 14:39:14;;;;;;;0.00;0.00;;;;;;;;;;12919193;23;20026;-73
2021/10/01 14:44:18;;;;;;;0.00;0.00;;;;;;;;;;12921526;22;20091;-72
2021/10/01 14:49:22;;;;;;;0.00;0.00;;;;;;;;;;12921345;23;20026;-72
2021/10/01 14:54:27;;;;;;;0.00;0.00;;;;;;;;;;12918864;23;20028;-72
2021/10/01 14:59:31;;;;;;;0.00;0.00;;;;;;;;;;12921117;23;20047;-72
2021/10/01 15:04:35;;;;;;;0.00;0.00;;;;;;;;;;12920569;23;20328;-72
2021/10/01 15:09:38;;;;;;;0.00;0.00;;;;;;;;;;12922102;22;20039;-72
2021/10/01 15:14:42;;;;;;;0.00;0.00;;;;;;;;;;12921471;22;20031;-73
2021/10/01 15:19:45;;;;;;;0.85;0.00;;;;;;;;;;12921812;23;20094;-73
2021/10/01 15:24:47;;;;;;;0.00;0.00;;;;;;;;;;12926773;23;20044;-73
2021/10/01 15:30:07;;;;;;;0.00;0.00;;;;;;;;;;12932267;22;20024;-74
2021/10/01 15:35:14;;;;;;;0.10;0.00;;;;;;;;;;12934259;23;20099;-74
2021/10/01 15:40:17;;;;;;;0.00;0.00;;;;;;;;;;12923417;22;20349;-73
2021/10/01 15:45:22;;;;;;;0.00;0.00;;;;;;;;;;12921708;22;20020;-74
2021/10/01 15:50:25;;;;;;;0.00;0.00;;;;;;;;;;12921599;22;20020;-73
2021/10/01 15:55:29;;;;;;;0.10;0.00;;;;;;;;;;12919458;23;20457;-72
2021/10/01 16:00:38;;;;;;;0.43;0.00;;;;;;;;;;12921242;23;20103;-73
2021/10/01 16:05:42;;;;;;;0.00;0.00;;;;;;;;;;12921212;22;20509;-73
2021/10/01 16:10:45;;;;;;;0.00;0.00;;;;;;;;;;12921444;22;20030;-73
2021/10/01 16:15:50;;;;;;;0.00;0.00;;;;;;;;;;12923353;22;20346;-72
2021/10/01 16:20:52;;;;;;;0.00;0.00;;;;;;;;;;12925024;22;20016;-74
2021/10/01 16:25:55;;;;;;;0.00;0.00;;;;;;;;;;12922329;23;20849;-74
2021/10/01 16:31:00;;;;;;;0.00;0.00;;;;;;;;;;12921608;23;20510;-74
2021/10/01 16:36:02;;;;;;;0.00;0.00;;;;;;;;;;12921746;23;20016;-74
2021/10/01 16:41:05;;;;;;;0.00;0.00;;;;;;;;;;12922790;22;20012;-74
2021/10/01 16:46:09;;;;;;;0.10;0.00;;;;;;;;;;12921257;23;20419;-74
2021/10/01 16:51:12;;;;;;;0.00;0.00;;;;;;;;;;12920686;22;20027;-74
2021/10/01 16:56:15;;;;;;;0.00;0.00;;;;;;;;;;12923325;23;20091;-73
2021/10/01 17:01:19;;;;;;;0.00;0.00;;;;;;;;;;12923265;23;20020;-73
2021/10/01 17:06:22;;;;;;;0.00;0.00;;;;;;;;;;12923027;23;20086;-73
2021/10/01 17:11:27;;;;;;;0.00;0.00;;;;;;;;;;12922795;23;20016;-74
2021/10/01 17:16:31;;;;;;;0.00;0.00;;;;;;;;;;12922809;23;20103;-73
2021/10/01 17:21:34;;;;;;;0.10;0.10;;;;;;;;;;12921220;23;20089;-73
2021/10/01 17:26:37;;;;;;;0.30;0.10;;;;;;;;;;12922354;23;20565;-74
2021/10/01 17:31:54;;;;;;;0.00;0.00;;;;;;;;;;12922985;23;20047;-74
2021/10/01 17:36:58;;;;;;;0.00;0.00;;;;;;;;;;12921844;23;20023;-73
2021/10/01 17:42:02;;;;;;;0.00;0.00;;;;;;;;;;12921131;23;20022;-74
2021/10/01 17:47:06;;;;;;;0.00;0.00;;;;;;;;;;12920668;23;20095;-74
2021/10/01 17:52:09;;;;;;;0.00;0.00;;;;;;;;;;12919930;22;20102;-73
2021/10/01 17:57:11;;;;;;;0.03;0.00;;;;;;;;;;12918447;23;20034;-74
2021/10/01 18:02:15;;;;;;;0.00;0.00;;;;;;;;;;12918944;23;20801;-74
2021/10/01 18:07:18;;;;;;;0.00;0.00;;;;;;;;;;12918392;23;20024;-74
2021/10/01 18:12:21;;;;;;;0.00;0.00;;;;;;;;;;12921063;22;20016;-74
2021/10/01 18:17:25;;;;;;;0.00;0.00;;;;;;;;;;12920858;22;20020;-74
2021/10/01 18:22:27;;;;;;;0.00;0.00;;;;;;;;;;12920867;22;20099;-74
2021/10/01 18:27:30;;;;;;;0.00;0.00;;;;;;;;;;12920936;23;20466;-74
2021/10/01 18:32:35;;;;;;;0.00;0.00;;;;;;;;;;12920785;22;20023;-75
2021/10/01 18:37:38;;;;;;;0.00;0.00;;;;;;;;;;12919982;22;20024;-74
2021/10/01 18:42:41;;;;;;;0.00;0.00;;;;;;;;;;12920314;23;20087;-74
2021/10/01 18:47:45;;;;;;;0.00;0.00;;;;;;;;;;12920305;22;20020;-74
2021/10/01 18:52:47;;;;;;;0.10;0.00;;;;;;;;;;12920225;23;20439;-74
2021/10/01 18:57:50;;;;;;;0.00;0.00;;;;;;;;;;12920356;23;20020;-72
2021/10/01 19:02:54;;;;;;;0.00;0.00;;;;;;;;;;12919740;23;20447;-74
2021/10/01 19:07:57;;;;;;;0.00;0.00;;;;;;;;;;12920591;22;20016;-72
2021/10/01 19:13:05;;;;;;;0.00;0.00;;;;;;;;;;12918623;23;20070;-73
2021/10/01 19:18:10;;;;;;;0.10;0.10;;;;;;;;;;12920416;23;20098;-73
2021/10/01 19:23:24;;;;;;;0.00;0.00;;;;;;;;;;12920255;22;20030;-73
2021/10/01 19:33:49;;;;;;;0.00;0.00;;;;;;;;;;12918588;23;20338;-74
2021/10/01 19:38:52;;;;;;;0.08;0.08;;;;;;;;;;12919705;23;20028;-74
2021/10/01 19:43:54;;;;;;;0.05;0.00;;;;;;;;;;12919999;23;20050;-74
2021/10/01 19:49:00;;;;;;;0.00;0.00;;;;;;;;;;12920673;22;20350;-74
2021/10/01 19:54:03;;;;;;;0.00;0.00;;;;;;;;;;12924562;23;20012;-74
2021/10/01 19:59:08;;;;;;;0.00;0.00;;;;;;;;;;12925080;22;20030;-74
2021/10/01 20:04:12;;;;;;;0.00;0.00;;;;;;;;;;12925094;22;20439;-73
2021/10/01 20:09:15;;;;;;;0.00;0.00;;;;;;;;;;12920764;22;20066;-74
2021/10/01 20:14:29;;;;;;;0.00;0.00;;;;;;;;;;12932391;22;20494;-75
2021/10/01 20:51:53;;;;;;;0.00;0.00;;;;;;;;;;12911077;23;20030;-73
2021/10/01 20:57:00;;;;;;;0.00;0.00;;;;;;;;;;12924322;23;20020;-74
2021/10/01 21:02:20;;;;;;;0.00;0.00;;;;;;;;;;12923384;22;20439;-74
2021/10/01 21:39:42;;;;;;;0.00;0.00;;;;;;;;;;12918790;22;20042;-74
2021/10/01 21:44:47;;;;;;;0.00;0.00;;;;;;;;;;12922686;23;20012;-74
2021/10/01 21:49:50;;;;;;;0.00;0.00;;;;;;;;;;12923411;23;20091;-74
2021/10/01 21:54:54;;;;;;;0.00;0.00;;;;;;;;;;12922677;23;20779;-74
2021/10/01 21:59:57;;;;;;;0.00;0.00;;;;;;;;;;12922757;23;20034;-74
2021/10/01 22:11:09;;;;;;;0.00;0.00;;;;;;;;;;10512504;28;20738;-60
2021/10/01 22:20:01;;;;;;;0.00;0.00;;;;;;;;;;10469947;28;20045;-60
2021/10/01 22:21:38;;;;;;;0.00;0.00;;;;;;;;;;10475153;28;20040;-60
2021/10/01 22:26:43;;;;;;;0.00;0.00;;;;;;;;;;10468386;28;20048;-60
2021/10/01 22:31:46;;;;;;;0.00;0.00;;;;;;;;;;10470185;28;20103;-60
2021/10/01 22:36:48;;;;;;;0.00;0.00;;;;;;;;;;10497521;28;20045;-60
2021/10/01 22:41:55;;;;;;;0.00;0.00;;;;;;;;;;10474509;28;20053;-60
2021/10/01 22:46:58;;;;;;;0.00;0.00;;;;;;;;;;10474283;28;20040;-60
2021/10/01 22:52:02;;;;;;;0.00;0.00;;;;;;;;;;10474320;28;20049;-60
2021/10/01 22:57:07;;;;;;;0.10;0.10;;;;;;;;;;10469993;28;20497;-60
2021/10/01 23:02:13;;;;;;;0.10;0.10;;;;;;;;;;10468664;28;20049;-60
2021/10/01 23:07:17;;;;;;;0.00;0.00;;;;;;;;;;10468255;28;20183;-60
2021/10/01 23:12:23;;;;;;;0.00;0.00;;;;;;;;;;10476653;28;20051;-60
2021/10/01 23:17:40;;;;;;;0.00;0.00;;;;;;;;;;10473587;28;20072;-60
